Run Hereford
12 May 2019

     
Click your name for detailed results

Page 1 of 8 (384 items)
PosBib NoNameTimeChip TimeCategoryCat PosGenderGen PosClubPace
2061183No Data 01:58:47.001:58:37.8None2 6.6 m/hr
611113Jolene BEREZA01:41:28.401:41:19.1FSen1Female6EMERSONS GREEN RUNNING CLUB 7.7 m/hr
791409Alice FINLOW01:44:21.101:44:09.4FSen2Female9 7.5 m/hr
881331Eleanor WALCZAK01:45:17.501:44:55.5FSen3Female10 7.5 m/hr
1111487Patricia SINCLAIR01:47:58.401:47:32.7FSen4Female13 7.3 m/hr
1121444Anna MACRAE01:48:04.001:47:42.8FSen5Female14 7.3 m/hr
1171503Hannah WATKINS01:48:50.301:48:42.6FSen6Female15HEREFORD COURIERS 7.2 m/hr
1261290Natasha PRYCE01:49:34.401:49:13.7FSen7Female17 7.2 m/hr
1271375Ruth BETTERTON01:49:34.601:49:16.3FSen8Female18 7.2 m/hr
1281504Katie WEEKS01:49:35.901:48:57.2FSen9Female19 7.2 m/hr
1291304Lara SEAL01:49:36.401:49:32.2FSen10Female20WYE VALLEY RUNNERS 7.2 m/hr
1391174Henrietta FOSTER01:52:12.101:51:39.0FSen11Female23 7.0 m/hr
1441523Juliette ABSON01:52:30.901:52:20.9FSen12Female24 7.0 m/hr
1501414Aisling FREETH01:53:17.101:52:42.9FSen13Female27HEREFORD COURIERS 6.9 m/hr
1551143Aimee CRAINE01:53:48.001:53:22.3FSen14Female28 6.9 m/hr
1571441Leah LEWIS01:54:10.901:53:34.1FSen15Female29 6.9 m/hr
1621236Catherine LENG01:54:44.301:54:35.1FSen16Female31 6.9 m/hr
1711220Ieva JOKUBAITYTE01:55:01.701:54:57.3FSen17Female32 6.8 m/hr
1741507Lucy WILDING01:55:02.601:54:58.9FSen18Female33CROFT AMBREY RUNNING CLUB 6.8 m/hr
1761528Roxy WOODFIELD01:55:04.101:55:00.1FSen19Female35CROFT AMBREY RUNNING CLUB 6.8 m/hr
1861480Lianne ROLLINSON01:56:47.501:56:26.0FSen20Female37BUILTH & DISTRICT RUNNING CLUB 6.7 m/hr
1891319Emma SULLIVAN01:56:57.801:56:29.1FSen21Female38 6.7 m/hr
1901255Anastasia MAZINA-SCOTT01:56:59.201:56:50.5FSen22Female39 6.7 m/hr
2131389Rachel CASELEY01:59:20.301:59:00.7FSen23Female45 6.6 m/hr
2161226Angharad JONES01:59:28.401:58:55.2FSen24Female46 6.6 m/hr
2211352Rae WILLIAMS01:59:56.101:59:12.1FSen25Female47 6.6 m/hr
2221511Katie WILLIAMS01:59:57.701:59:35.9FSen26Female48 6.6 m/hr
2351381Hannah BOURNE02:00:55.702:00:16.5FSen27Female54 6.5 m/hr
2361317Connie STOVELL02:01:10.802:00:34.4FSen28Female55 6.5 m/hr
2391312Trisha SMITH02:01:39.302:01:33.8FSen29Female56 6.5 m/hr
2441481Kristina RUTTKAYOVA02:02:08.102:01:32.1FSen30Female58 6.4 m/hr
2561263Jemima MORGAN02:04:06.102:03:31.1FSen31Female60 6.3 m/hr
2631177Hollie FRANCIS02:04:52.802:04:27.8FSen32Female62 6.3 m/hr
2701552Nikki JONES02:06:17.202:05:39.8FSen33Female65CALDICOT RUNNING CLUB 6.2 m/hr
2731559Sally KING02:07:10.602:06:26.0FSen34Female68 6.2 m/hr
2741558Amy KING02:07:10.602:06:26.7FSen35Female69 6.2 m/hr
2761285Jordan POWIS02:07:13.102:07:07.0FSen36Female71 6.2 m/hr
2851170Harriet EVERARD02:09:16.602:09:13.3FSen37Female74 6.1 m/hr
2891361Ally WRIGHT02:10:10.302:09:49.5FSen38Female75 6.0 m/hr
2901111Sian BENNETT02:10:11.302:09:34.6FSen39Female76 6.0 m/hr
2931382Kath BRACE02:11:01.602:10:51.9FSen40Female79 6.0 m/hr
3081533Victoria MACFARLANE02:13:48.302:13:39.7FSen41Female87NORTH BRISTOL RUNNING GROUP 5.9 m/hr
3091258Charlotte MILLER02:14:19.602:13:41.5FSen42Female88 5.9 m/hr
3101353Lia WILLIAMS02:14:19.702:13:41.8FSen43Female89 5.9 m/hr
3121103Sara AMPS02:15:29.602:15:13.5FSen44Female91 5.8 m/hr
3151208Chloe HOPKINS02:16:13.502:16:01.9FSen45Female92 5.8 m/hr
3201193Nina HARRISON02:19:04.402:19:03.5FSen46Female96 5.7 m/hr
3211450Janet MCKAY02:19:18.402:18:37.8FSen47Female97 5.6 m/hr
3331128Alice BRUYNSEELS02:23:10.602:22:27.7FSen48Female103 5.5 m/hr
3351278Ali PARKER02:23:38.402:23:02.8FSen49Female104 5.5 m/hr
Page 1 of 8 (384 items)
   

fb